Time;durP1;ratioP1;P1;durP2;ratioP2;P2;SDS_P1;SDS_P2;PMS_P1;PMS_P2;Temp;Humidity;BMP_temperature;BMP_pressure;BME280_temperature;BME280_humidity;BME280_pressure;Samples;Min_cycle;Max_cycle;Signal;HPM_P1;HPM_P2
2021/11/06 00:00:35;;;;;;;76.47;47.25;;;5.70;99.90;;;;;;5011372;28;20030;-72
2021/11/06 00:03:00;;;;;;;73.68;44.95;;;5.70;99.90;;;;;;5003862;28;20022;-73
2021/11/06 00:05:26;;;;;;;75.35;45.85;;;5.80;99.90;;;;;;5011021;28;20390;-73
2021/11/06 00:07:51;;;;;;;84.40;49.13;;;5.70;99.90;;;;;;5004023;28;20023;-72
2021/11/06 00:10:17;;;;;;;84.38;48.47;;;5.80;99.90;;;;;;5007913;28;20476;-73
2021/11/06 00:12:43;;;;;;;84.35;48.17;;;5.70;99.90;;;;;;5008918;28;20032;-72
2021/11/06 00:15:10;;;;;;;81.13;48.15;;;5.70;99.90;;;;;;5010262;28;20176;-73
2021/11/06 00:17:38;;;;;;;81.20;49.92;;;5.70;99.90;;;;;;5005350;28;20236;-73
2021/11/06 00:20:05;;;;;;;72.53;45.03;;;5.60;99.90;;;;;;5007485;28;20049;-73
2021/11/06 00:22:32;;;;;;;84.13;49.05;;;5.60;99.90;;;;;;5009073;28;20174;-73
2021/11/06 00:24:59;;;;;;;75.35;46.60;;;5.50;99.90;;;;;;5007162;28;20109;-73
2021/11/06 00:27:25;;;;;;;84.05;49.53;;;5.50;99.90;;;;;;5006205;28;20382;-73
2021/11/06 00:29:51;;;;;;;82.93;50.65;;;5.50;99.90;;;;;;5008378;28;20026;-73
2021/11/06 00:32:17;;;;;;;87.57;51.22;;;5.30;99.90;;;;;;5012366;28;20018;-73
2021/11/06 00:34:43;;;;;;;85.07;50.58;;;5.20;99.90;;;;;;5007347;28;20112;-73
2021/11/06 00:37:08;;;;;;;93.53;52.22;;;5.20;99.90;;;;;;5003719;28;20392;-72
2021/11/06 00:39:34;;;;;;;89.30;51.17;;;5.10;99.90;;;;;;5010110;28;20034;-73
2021/11/06 00:42:00;;;;;;;87.43;51.67;;;5.20;99.90;;;;;;5002883;28;20054;-73
2021/11/06 00:44:27;;;;;;;70.53;44.92;;;5.30;99.90;;;;;;5009378;28;20439;-73
2021/11/06 00:46:53;;;;;;;95.80;54.05;;;5.30;99.90;;;;;;5007770;28;20026;-73
2021/11/06 00:49:18;;;;;;;108.88;54.78;;;5.20;99.90;;;;;;5005143;28;20077;-73
2021/11/06 00:51:44;;;;;;;103.22;56.65;;;5.00;99.90;;;;;;5003982;28;20032;-73
2021/11/06 00:54:10;;;;;;;106.40;55.95;;;5.00;99.90;;;;;;5006753;28;20169;-73
2021/11/06 00:56:35;;;;;;;94.47;53.53;;;5.00;99.90;;;;;;5004171;28;20444;-73
2021/11/06 00:59:01;;;;;;;94.55;52.28;;;5.20;99.90;;;;;;5010477;28;20117;-73
2021/11/06 01:01:26;;;;;;;89.57;50.80;;;5.20;99.90;;;;;;5006140;28;20026;-72
2021/11/06 01:03:52;;;;;;;116.03;58.63;;;5.40;99.90;;;;;;5006215;28;20026;-72
2021/11/06 01:06:18;;;;;;;130.65;61.88;;;5.30;99.90;;;;;;5013218;28;20022;-73
2021/11/06 01:08:43;;;;;;;105.85;56.15;;;5.20;99.90;;;;;;5006329;28;20026;-73
2021/11/06 01:11:10;;;;;;;108.50;57.17;;;5.10;99.90;;;;;;5004797;28;20030;-73
2021/11/06 01:13:36;;;;;;;113.10;56.05;;;5.10;99.90;;;;;;5008610;28;20027;-73
2021/11/06 01:16:01;;;;;;;113.18;56.83;;;5.10;99.90;;;;;;5002832;28;20034;-73
2021/11/06 01:18:27;;;;;;;97.20;53.83;;;5.00;99.90;;;;;;5008716;28;20029;-73
2021/11/06 01:20:53;;;;;;;105.20;55.67;;;5.00;99.90;;;;;;5006634;28;20037;-73
2021/11/06 01:23:18;;;;;;;96.97;53.28;;;4.90;99.90;;;;;;5006459;28;20029;-73
2021/11/06 01:25:44;;;;;;;95.38;52.15;;;4.90;99.90;;;;;;5005265;28;20026;-73
2021/11/06 01:28:09;;;;;;;103.40;54.55;;;4.90;99.90;;;;;;5004614;28;20060;-73
2021/11/06 01:30:35;;;;;;;101.45;54.05;;;4.80;99.90;;;;;;5006055;28;20435;-73
2021/11/06 01:33:01;;;;;;;121.38;58.72;;;4.70;99.90;;;;;;5005731;28;20022;-73
2021/11/06 01:35:26;;;;;;;128.20;60.30;;;4.70;99.90;;;;;;5006433;28;20386;-73
2021/11/06 01:37:52;;;;;;;95.80;53.70;;;4.50;99.90;;;;;;5014215;28;20057;-72
2021/11/06 01:40:19;;;;;;;131.73;60.25;;;4.50;99.90;;;;;;5004856;28;20022;-73
2021/11/06 01:42:45;;;;;;;118.07;58.88;;;4.70;99.90;;;;;;5005917;28;20492;-73
2021/11/06 01:45:14;;;;;;;107.40;55.85;;;4.30;99.90;;;;;;5004508;28;20041;-72
2021/11/06 01:47:40;;;;;;;139.10;62.03;;;4.30;99.90;;;;;;5008305;28;20023;-73
2021/11/06 01:50:08;;;;;;;89.07;49.53;;;4.30;99.90;;;;;;5005449;28;20034;-73
2021/11/06 01:52:33;;;;;;;122.47;59.35;;;4.20;99.90;;;;;;4999037;28;20019;-73
2021/11/06 01:54:59;;;;;;;103.13;53.65;;;4.30;99.90;;;;;;5004898;28;20057;-74
2021/11/06 01:57:27;;;;;;;147.77;64.00;;;4.30;99.90;;;;;;4998702;28;20030;-73
2021/11/06 01:59:53;;;;;;;122.20;60.75;;;4.20;99.90;;;;;;4988885;28;20126;-73
2021/11/06 02:02:19;;;;;;;116.85;55.95;;;4.00;99.90;;;;;;5006357;28;20058;-73
2021/11/06 02:04:45;;;;;;;124.40;58.85;;;3.90;99.90;;;;;;5005904;28;20014;-73
2021/11/06 02:07:11;;;;;;;155.52;65.07;;;3.90;99.90;;;;;;5005031;28;20097;-73
2021/11/06 02:09:37;;;;;;;136.57;59.35;;;4.00;99.90;;;;;;4998293;28;20384;-73
2021/11/06 02:12:03;;;;;;;99.32;53.78;;;3.90;99.90;;;;;;5004761;28;20022;-73
2021/11/06 02:14:29;;;;;;;147.85;65.22;;;4.00;99.90;;;;;;5004412;28;20022;-72
2021/11/06 02:16:55;;;;;;;90.85;52.40;;;4.00;99.90;;;;;;4998316;28;20019;-73
2021/11/06 02:19:31;;;;;;;108.03;56.95;;;4.00;99.90;;;;;;4995277;28;20030;-73
2021/11/06 02:21:59;;;;;;;161.82;68.78;;;3.90;99.90;;;;;;4996958;28;20081;-74
2021/11/06 02:24:26;;;;;;;209.23;75.38;;;3.80;99.90;;;;;;5003675;28;20093;-73
2021/11/06 02:26:52;;;;;;;171.73;68.88;;;3.70;99.90;;;;;;5006022;28;20026;-73
2021/11/06 02:29:18;;;;;;;312.05;81.95;;;3.60;99.90;;;;;;5002420;28;20022;-73
2021/11/06 02:31:44;;;;;;;486.95;94.85;;;3.30;99.90;;;;;;5000143;28;20049;-73
2021/11/06 02:34:10;;;;;;;161.82;66.45;;;3.40;99.90;;;;;;5001513;28;20031;-73
2021/11/06 02:36:36;;;;;;;294.48;82.65;;;3.40;99.90;;;;;;4995266;28;20390;-73
2021/11/06 02:39:03;;;;;;;608.83;106.88;;;3.40;99.90;;;;;;5000504;28;20476;-73
2021/11/06 02:41:29;;;;;;;139.88;58.75;;;3.30;99.90;;;;;;5000548;28;20022;-73
2021/11/06 02:43:55;;;;;;;203.70;72.13;;;3.40;99.90;;;;;;4998921;28;20165;-73
2021/11/06 02:46:21;;;;;;;211.45;63.55;;;3.40;99.90;;;;;;5005078;28;20048;-73
2021/11/06 02:48:46;;;;;;;616.17;85.43;;;3.50;99.90;;;;;;5003929;28;20469;-73
2021/11/06 02:51:15;;;;;;;296.15;54.60;;;3.10;99.90;;;;;;5002046;28;20030;-73
2021/11/06 02:53:41;;;;;;;327.48;66.65;;;3.20;99.90;;;;;;4998221;28;20022;-72
2021/11/06 02:56:06;;;;;;;76.30;43.65;;;3.20;99.90;;;;;;5004533;28;20141;-74
2021/11/06 02:58:32;;;;;;;124.00;57.38;;;3.30;99.90;;;;;;4994501;28;20473;-73
2021/11/06 03:00:58;;;;;;;97.80;50.80;;;3.50;99.90;;;;;;4995231;28;20029;-74
2021/11/06 03:03:23;;;;;;;133.63;59.58;;;3.50;99.90;;;;;;5012521;28;20026;-74
2021/11/06 03:05:49;;;;;;;150.82;63.05;;;3.40;99.90;;;;;;5013750;28;20049;-74
2021/11/06 03:08:14;;;;;;;149.55;58.92;;;3.40;99.90;;;;;;5011326;28;20363;-74
2021/11/06 03:10:40;;;;;;;261.05;73.97;;;3.20;99.90;;;;;;5011769;28;20634;-74
2021/11/06 03:13:06;;;;;;;349.15;75.13;;;3.10;99.90;;;;;;5010729;28;20022;-74
2021/11/06 03:15:32;;;;;;;161.55;56.65;;;2.90;99.90;;;;;;5011324;28;20026;-75
2021/11/06 03:17:57;;;;;;;108.18;49.58;;;2.90;99.90;;;;;;4992936;28;20053;-74
2021/11/06 03:20:23;;;;;;;116.55;54.83;;;3.10;99.90;;;;;;5006234;28;20068;-73
2021/11/06 03:22:51;;;;;;;137.82;57.88;;;3.20;99.90;;;;;;5011854;28;20033;-74
2021/11/06 03:25:17;;;;;;;124.57;54.60;;;3.20;99.90;;;;;;5010538;28;20038;-75
2021/11/06 03:27:42;;;;;;;148.90;54.65;;;3.10;99.90;;;;;;5009695;28;20495;-75
2021/11/06 03:30:11;;;;;;;456.02;77.40;;;2.90;99.90;;;;;;4997262;28;20385;-75
2021/11/06 03:32:37;;;;;;;439.92;81.47;;;2.60;99.90;;;;;;5000060;28;20395;-75
2021/11/06 03:35:05;;;;;;;573.33;95.32;;;2.60;99.90;;;;;;4999905;28;20493;-74
2021/11/06 03:37:31;;;;;;;731.08;90.10;;;2.70;99.90;;;;;;4991076;28;20073;-75
2021/11/06 03:39:57;;;;;;;247.07;66.15;;;2.50;99.90;;;;;;4992155;28;20351;-74
2021/11/06 03:42:23;;;;;;;76.80;40.92;;;2.70;99.90;;;;;;4991884;28;20022;-73
2021/11/06 03:44:48;;;;;;;404.65;66.03;;;2.60;99.90;;;;;;4992291;28;20424;-72
2021/11/06 03:47:14;;;;;;;185.88;57.78;;;2.70;99.90;;;;;;4990953;28;20130;-73
2021/11/06 03:49:39;;;;;;;588.10;82.47;;;2.70;99.90;;;;;;5001795;28;20046;-73
2021/11/06 03:52:05;;;;;;;277.48;67.65;;;2.60;99.90;;;;;;5003033;28;20498;-73
2021/11/06 03:54:31;;;;;;;182.05;57.83;;;2.50;99.90;;;;;;5007179;28;20053;-73
2021/11/06 03:56:57;;;;;;;122.75;51.15;;;2.40;99.90;;;;;;5002037;28;20122;-73
2021/11/06 03:59:23;;;;;;;153.93;54.35;;;2.40;99.90;;;;;;4998766;28;20071;-73
2021/11/06 04:01:48;;;;;;;123.65;50.15;;;2.40;99.90;;;;;;4992109;28;20030;-73
2021/11/06 04:04:14;;;;;;;130.65;53.47;;;2.40;99.90;;;;;;4992136;28;20400;-74
2021/11/06 04:06:40;;;;;;;239.55;60.10;;;2.40;99.90;;;;;;4990797;28;20497;-73
2021/11/06 04:09:05;;;;;;;276.48;66.25;;;2.40;99.90;;;;;;4991717;28;20018;-73
2021/11/06 04:11:31;;;;;;;267.88;62.70;;;2.40;99.90;;;;;;4990463;28;20022;-73
2021/11/06 04:13:57;;;;;;;209.45;64.25;;;2.30;99.90;;;;;;4991974;28;20073;-74
2021/11/06 04:16:23;;;;;;;152.45;55.22;;;2.30;99.90;;;;;;4991961;28;20513;-74
2021/11/06 04:18:49;;;;;;;101.40;47.78;;;2.40;99.90;;;;;;4991733;28;20034;-74
2021/11/06 04:21:14;;;;;;;121.45;53.03;;;2.40;99.90;;;;;;4991712;28;20369;-73
2021/11/06 04:23:40;;;;;;;142.30;55.30;;;2.40;99.90;;;;;;4991821;28;20109;-73
2021/11/06 04:26:06;;;;;;;96.35;47.35;;;2.60;99.90;;;;;;4991813;28;20053;-73
2021/11/06 04:28:32;;;;;;;118.03;50.22;;;2.50;99.90;;;;;;4991716;28;20033;-74
2021/11/06 04:30:58;;;;;;;117.90;51.58;;;2.60;99.90;;;;;;4981399;28;20023;-74
2021/11/06 04:33:23;;;;;;;97.38;48.08;;;2.60;99.90;;;;;;4975646;28;20026;-74
2021/11/06 04:35:49;;;;;;;96.10;46.13;;;2.70;99.90;;;;;;4993209;28;20089;-73
2021/11/06 04:38:14;;;;;;;83.85;42.58;;;2.70;99.90;;;;;;4990177;28;20034;-76
2021/11/06 04:40:40;;;;;;;80.95;42.67;;;2.60;99.90;;;;;;4993411;28;20053;-75
2021/11/06 04:43:05;;;;;;;84.30;44.03;;;2.40;99.90;;;;;;4993856;28;20092;-75
2021/11/06 04:45:31;;;;;;;92.63;45.47;;;2.50;99.90;;;;;;4995219;28;20496;-74
2021/11/06 04:47:57;;;;;;;79.68;43.15;;;2.40;99.90;;;;;;4994919;28;20109;-73
2021/11/06 04:50:23;;;;;;;112.82;50.90;;;2.40;99.90;;;;;;4995051;28;20034;-73
2021/11/06 04:52:48;;;;;;;96.15;46.22;;;2.40;99.90;;;;;;4993745;28;20024;-73
2021/11/06 04:55:16;;;;;;;96.03;47.05;;;2.50;99.90;;;;;;4995521;28;20030;-73
2021/11/06 04:57:42;;;;;;;76.30;44.78;;;2.50;99.90;;;;;;4993691;28;20041;-73
2021/11/06 05:00:11;;;;;;;79.95;44.30;;;2.50;99.90;;;;;;4993595;28;20034;-73
2021/11/06 05:02:36;;;;;;;73.43;40.47;;;2.30;99.90;;;;;;4993406;28;20116;-72
2021/11/06 05:05:02;;;;;;;74.53;41.22;;;2.20;99.90;;;;;;4993655;28;20496;-72
2021/11/06 05:07:28;;;;;;;73.25;39.55;;;2.30;99.90;;;;;;4994807;28;20496;-72
2021/11/06 05:09:55;;;;;;;61.47;36.10;;;2.30;99.90;;;;;;4993561;28;20030;-72
2021/11/06 05:12:21;;;;;;;57.70;35.65;;;2.30;99.90;;;;;;4994473;28;20081;-74
2021/11/06 05:14:48;;;;;;;52.67;33.78;;;2.30;99.90;;;;;;4995400;28;20545;-73
2021/11/06 05:17:14;;;;;;;51.97;32.80;;;2.40;99.90;;;;;;4997531;28;20034;-73
2021/11/06 05:19:39;;;;;;;89.22;40.20;;;2.40;99.90;;;;;;4993191;28;20030;-73
2021/11/06 05:22:07;;;;;;;68.72;39.05;;;2.30;99.90;;;;;;4994373;28;20362;-73
2021/11/06 05:24:33;;;;;;;56.10;34.65;;;2.40;99.90;;;;;;4992988;28;20081;-73
2021/11/06 05:26:59;;;;;;;111.93;46.97;;;2.40;99.90;;;;;;5009096;28;20030;-73
2021/11/06 05:29:24;;;;;;;64.60;36.55;;;2.40;99.90;;;;;;5004861;28;20030;-72
2021/11/06 05:31:50;;;;;;;69.28;39.40;;;2.50;99.90;;;;;;4996850;28;20026;-73
2021/11/06 05:34:16;;;;;;;227.20;83.63;;;2.50;99.90;;;;;;5009737;28;20033;-73
2021/11/06 05:36:42;;;;;;;695.22;141.05;;;2.40;99.90;;;;;;4996017;28;20104;-73
2021/11/06 05:39:07;;;;;;;1377.13;548.75;;;2.20;99.90;;;;;;4995075;28;20030;-73
2021/11/06 05:41:33;;;;;;;779.35;149.25;;;1.90;99.90;;;;;;4994091;28;20424;-72
2021/11/06 05:43:59;;;;;;;600.97;182.20;;;1.80;99.90;;;;;;4994263;28;20022;-72
2021/11/06 05:46:25;;;;;;;382.85;92.63;;;1.70;99.90;;;;;;4998267;28;20465;-73
2021/11/06 05:48:51;;;;;;;200.98;69.05;;;1.60;99.90;;;;;;4993826;28;20037;-73
2021/11/06 05:51:17;;;;;;;100.63;53.05;;;1.60;99.90;;;;;;4992931;28;20026;-73
2021/11/06 05:53:42;;;;;;;154.80;57.45;;;1.70;99.90;;;;;;4992837;28;20022;-73
2021/11/06 05:56:08;;;;;;;142.05;56.75;;;1.90;99.90;;;;;;4994113;28;20480;-73
2021/11/06 05:58:33;;;;;;;179.15;81.88;;;1.70;99.90;;;;;;4992667;28;20113;-73
2021/11/06 06:00:59;;;;;;;131.32;64.35;;;1.80;99.90;;;;;;5006944;28;20100;-72
2021/11/06 06:03:25;;;;;;;189.20;75.32;;;1.90;99.90;;;;;;4993848;28;20118;-72
2021/11/06 06:05:50;;;;;;;174.38;67.63;;;2.00;99.90;;;;;;4993869;28;20034;-72
2021/11/06 06:08:17;;;;;;;232.27;72.88;;;2.20;99.90;;;;;;5002460;28;20124;-72
2021/11/06 06:10:43;;;;;;;579.13;112.85;;;2.40;99.90;;;;;;4998017;28;20022;-73
2021/11/06 06:13:09;;;;;;;537.80;109.25;;;2.50;99.90;;;;;;4993814;28;20081;-73
2021/11/06 06:15:35;;;;;;;176.07;65.30;;;2.70;99.90;;;;;;4993569;28;20550;-73
2021/11/06 06:18:01;;;;;;;804.63;178.85;;;2.60;99.90;;;;;;4985355;28;20022;-72
2021/11/06 06:20:26;;;;;;;488.27;114.97;;;2.70;99.90;;;;;;4987175;28;20038;-73
2021/11/06 06:22:52;;;;;;;502.65;100.18;;;2.70;99.90;;;;;;4990226;28;20029;-73
2021/11/06 06:25:17;;;;;;;175.98;64.25;;;2.80;99.90;;;;;;5011618;28;20514;-74
2021/11/06 06:27:43;;;;;;;171.40;65.95;;;2.90;99.90;;;;;;5013154;28;20396;-73
2021/11/06 06:30:12;;;;;;;217.07;68.03;;;3.10;99.90;;;;;;4998488;28;20054;-73
2021/11/06 06:32:38;;;;;;;841.00;131.07;;;3.20;99.90;;;;;;4992003;28;20026;-73
2021/11/06 06:35:05;;;;;;;271.13;70.50;;;3.20;99.90;;;;;;4993348;28;20030;-73
2021/11/06 06:37:31;;;;;;;447.50;87.38;;;3.30;99.90;;;;;;5003010;28;20080;-73
2021/11/06 06:39:57;;;;;;;310.13;74.43;;;3.40;99.90;;;;;;4999726;28;20026;-73
2021/11/06 06:42:23;;;;;;;824.83;129.65;;;3.60;99.90;;;;;;5004688;28;20097;-73
2021/11/06 06:44:50;;;;;;;851.97;125.63;;;3.60;99.90;;;;;;5006373;28;20033;-73
2021/11/06 06:47:15;;;;;;;725.17;118.53;;;3.50;99.90;;;;;;5002539;28;20034;-73
2021/11/06 06:49:41;;;;;;;678.95;116.10;;;3.50;99.90;;;;;;4996444;28;20091;-73
2021/11/06 06:52:07;;;;;;;513.00;91.90;;;3.50;99.90;;;;;;4992793;28;20026;-73
2021/11/06 06:54:32;;;;;;;450.55;88.53;;;3.80;99.90;;;;;;5007765;28;20049;-73
2021/11/06 06:56:58;;;;;;;517.35;98.30;;;3.70;99.90;;;;;;5012610;28;20041;-72
2021/11/06 06:59:23;;;;;;;555.97;101.13;;;3.80;99.90;;;;;;4996637;28;20062;-73
2021/11/06 07:01:49;;;;;;;401.75;87.38;;;3.70;99.90;;;;;;4992603;28;20030;-73
2021/11/06 07:04:15;;;;;;;488.15;99.18;;;3.80;99.90;;;;;;5006053;28;20040;-73
2021/11/06 07:06:41;;;;;;;632.53;119.70;;;3.80;99.90;;;;;;4983120;28;20046;-73
2021/11/06 07:09:06;;;;;;;266.55;74.63;;;3.90;99.90;;;;;;4987051;28;20030;-72
2021/11/06 07:11:32;;;;;;;384.88;90.07;;;3.80;99.90;;;;;;4992652;28;20551;-73
2021/11/06 07:13:58;;;;;;;465.85;98.95;;;3.90;99.90;;;;;;5004513;28;20021;-73
2021/11/06 07:16:23;;;;;;;202.30;69.20;;;3.90;99.90;;;;;;4991319;28;20036;-73
2021/11/06 07:18:49;;;;;;;438.60;94.03;;;3.90;99.90;;;;;;5005450;28;20034;-73
2021/11/06 07:21:15;;;;;;;389.52;89.57;;;3.90;99.90;;;;;;4999882;28;20500;-73
2021/11/06 07:23:40;;;;;;;462.80;103.38;;;3.90;99.90;;;;;;4999103;28;20037;-73
2021/11/06 07:26:06;;;;;;;466.35;98.63;;;4.00;99.90;;;;;;5003177;28;20110;-73
2021/11/06 07:28:32;;;;;;;490.30;98.18;;;4.00;99.90;;;;;;5006433;28;20476;-72
2021/11/06 07:30:58;;;;;;;256.58;72.20;;;3.90;99.90;;;;;;5001707;28;20034;-73
2021/11/06 07:33:24;;;;;;;454.48;94.97;;;3.90;99.90;;;;;;4991144;28;20026;-73
2021/11/06 07:35:50;;;;;;;530.28;110.82;;;3.90;99.90;;;;;;4992441;28;20034;-73
2021/11/06 07:38:16;;;;;;;621.70;117.82;;;3.90;99.90;;;;;;5005515;28;20030;-73
2021/11/06 07:40:42;;;;;;;398.23;92.28;;;4.00;99.90;;;;;;4992353;28;20573;-73
2021/11/06 07:43:08;;;;;;;211.48;66.80;;;4.00;99.90;;;;;;4995110;28;20034;-73
2021/11/06 07:45:34;;;;;;;443.77;91.13;;;4.00;99.90;;;;;;5000989;28;20624;-73
2021/11/06 07:48:00;;;;;;;217.27;67.15;;;4.10;99.90;;;;;;4990689;28;20034;-73
2021/11/06 07:50:26;;;;;;;172.27;60.97;;;4.20;99.90;;;;;;5000479;28;20180;-73
2021/11/06 07:52:51;;;;;;;319.67;80.28;;;4.20;99.90;;;;;;4998699;28;20468;-74
2021/11/06 07:55:17;;;;;;;157.60;63.20;;;4.10;99.90;;;;;;5001266;28;20053;-73
2021/11/06 07:57:43;;;;;;;255.77;78.03;;;4.20;99.90;;;;;;4992076;28;20077;-73
2021/11/06 08:00:12;;;;;;;367.92;96.68;;;4.20;99.90;;;;;;5001339;28;20030;-73
2021/11/06 08:02:39;;;;;;;110.78;56.35;;;4.30;99.90;;;;;;4995392;28;20030;-73
2021/11/06 08:05:09;;;;;;;237.27;103.72;;;4.60;99.90;;;;;;5000488;28;20038;-73
2021/11/06 08:07:35;;;;;;;218.73;83.18;;;4.50;99.90;;;;;;4995217;28;20038;-73
2021/11/06 08:10:03;;;;;;;195.95;79.10;;;4.50;99.90;;;;;;4992665;28;20114;-73
2021/11/06 08:12:29;;;;;;;199.60;72.75;;;4.50;99.90;;;;;;4992106;28;20033;-72
2021/11/06 08:14:55;;;;;;;214.73;72.82;;;4.50;99.90;;;;;;4992998;28;20033;-73
2021/11/06 08:17:21;;;;;;;209.02;72.55;;;4.40;99.90;;;;;;4998476;28;20029;-73
2021/11/06 08:19:46;;;;;;;250.93;83.05;;;4.40;99.90;;;;;;5003633;28;20084;-73
2021/11/06 08:22:12;;;;;;;273.38;81.75;;;4.30;99.90;;;;;;5008704;28;20032;-73
2021/11/06 08:24:39;;;;;;;338.60;89.45;;;4.40;99.90;;;;;;5005948;28;20033;-72
2021/11/06 08:27:05;;;;;;;291.45;81.15;;;4.40;99.90;;;;;;5001010;28;20022;-72
2021/11/06 08:29:31;;;;;;;211.98;69.72;;;4.50;99.90;;;;;;5004711;28;20445;-72
2021/11/06 08:31:58;;;;;;;163.90;63.45;;;4.60;99.90;;;;;;4986474;28;20052;-73
2021/11/06 08:34:25;;;;;;;272.13;79.95;;;4.80;99.90;;;;;;5004482;28;20106;-73
2021/11/06 08:36:52;;;;;;;197.63;65.88;;;4.80;99.90;;;;;;4999868;28;20025;-73
2021/11/06 08:39:19;;;;;;;287.55;81.47;;;4.70;99.90;;;;;;5003959;28;20097;-73
2021/11/06 08:41:45;;;;;;;413.10;92.82;;;4.70;99.90;;;;;;4995246;28;20548;-74
2021/11/06 08:44:10;;;;;;;180.55;63.72;;;4.60;99.90;;;;;;4994116;28;20113;-73
2021/11/06 08:46:36;;;;;;;193.27;61.40;;;4.70;99.90;;;;;;4994000;28;20496;-73
2021/11/06 08:49:01;;;;;;;289.73;76.82;;;4.80;99.90;;;;;;4994993;28;20023;-72
2021/11/06 08:51:27;;;;;;;150.75;59.25;;;5.00;99.90;;;;;;4994983;28;20436;-73
2021/11/06 08:53:52;;;;;;;166.23;60.95;;;5.20;99.90;;;;;;4995221;28;20032;-73
2021/11/06 08:56:18;;;;;;;344.60;79.47;;;5.30;99.90;;;;;;4995100;28;20026;-73
2021/11/06 08:58:44;;;;;;;185.70;60.80;;;5.10;99.90;;;;;;4994988;28;20130;-73
2021/11/06 09:01:10;;;;;;;164.82;60.03;;;5.10;99.90;;;;;;4994806;28;20045;-72
2021/11/06 09:03:36;;;;;;;154.43;58.42;;;5.10;99.90;;;;;;4995014;28;20484;-73
2021/11/06 09:06:01;;;;;;;135.80;56.20;;;5.00;99.90;;;;;;5007038;28;20027;-73
2021/11/06 09:08:35;;;;;;;105.95;49.08;;;5.10;99.90;;;;;;5005096;28;20435;-73
2021/11/06 09:11:05;;;;;;;123.03;52.45;;;5.00;99.90;;;;;;5001133;28;20025;-73
2021/11/06 09:13:31;;;;;;;94.47;46.70;;;5.00;99.90;;;;;;5014712;28;20441;-73
2021/11/06 09:15:57;;;;;;;118.65;50.53;;;5.20;99.90;;;;;;5004120;23;20042;-72
2021/11/06 09:18:22;;;;;;;91.32;44.42;;;5.20;99.90;;;;;;4973015;28;20023;-73
2021/11/06 09:20:48;;;;;;;156.55;54.75;;;5.30;99.90;;;;;;4973550;28;20551;-73
2021/11/06 09:23:14;;;;;;;145.48;53.55;;;5.10;99.90;;;;;;4975178;28;20546;-73
2021/11/06 09:25:40;;;;;;;209.95;60.75;;;4.90;99.90;;;;;;4972272;28;20480;-73
2021/11/06 09:28:05;;;;;;;167.65;57.63;;;4.90;99.90;;;;;;4978651;28;20023;-73
2021/11/06 09:30:31;;;;;;;173.27;57.10;;;4.90;99.90;;;;;;4974900;28;20027;-73
2021/11/06 09:32:57;;;;;;;155.90;55.42;;;4.60;99.90;;;;;;4974910;28;20107;-73
2021/11/06 09:35:22;;;;;;;165.55;55.92;;;4.70;99.90;;;;;;4976776;28;20026;-73
2021/11/06 09:37:48;;;;;;;137.70;53.28;;;4.80;99.90;;;;;;4976319;28;20030;-73
2021/11/06 09:40:16;;;;;;;172.60;56.90;;;4.90;99.90;;;;;;4987883;28;20504;-73
2021/11/06 09:42:42;;;;;;;173.68;57.30;;;5.10;99.90;;;;;;4973414;28;20034;-73
2021/11/06 09:45:10;;;;;;;154.07;54.53;;;5.00;99.90;;;;;;4982540;28;20427;-74
2021/11/06 09:47:37;;;;;;;88.45;43.53;;;4.80;99.90;;;;;;4978379;28;20026;-73
2021/11/06 09:50:04;;;;;;;93.35;44.35;;;4.90;99.90;;;;;;4975992;28;20034;-74
2021/11/06 09:52:30;;;;;;;156.18;52.45;;;5.20;99.90;;;;;;4981621;28;20023;-72
2021/11/06 09:54:55;;;;;;;168.88;57.78;;;5.00;99.90;;;;;;4968299;28;20042;-73
2021/11/06 09:57:21;;;;;;;193.38;59.47;;;5.10;99.90;;;;;;4961724;28;20039;-73
2021/11/06 09:59:47;;;;;;;229.10;63.60;;;4.90;99.90;;;;;;4989568;28;20042;-73
2021/11/06 10:02:13;;;;;;;220.65;59.17;;;4.80;99.90;;;;;;4981289;28;20106;-73
2021/11/06 10:04:38;;;;;;;197.45;59.92;;;4.70;99.90;;;;;;4991996;28;20498;-72
2021/11/06 10:07:33;;;;;;;221.30;61.10;;;4.60;99.90;;;;;;4991947;28;20514;-73
2021/11/06 10:10:08;;;;;;;330.55;73.47;;;4.60;99.90;;;;;;4950203;28;20027;-73
2021/11/06 10:12:46;;;;;;;258.73;67.78;;;4.70;99.90;;;;;;4980506;28;20027;-73
2021/11/06 10:15:12;;;;;;;271.10;68.40;;;4.50;99.90;;;;;;4982389;28;20508;-73
2021/11/06 10:17:38;;;;;;;261.42;65.90;;;4.60;99.90;;;;;;4987079;28;20041;-73
2021/11/06 10:20:24;;;;;;;351.00;73.68;;;4.60;99.90;;;;;;4974184;28;20030;-73
2021/11/06 10:22:54;;;;;;;306.85;73.30;;;4.60;99.90;;;;;;4969562;28;20069;-73
2021/11/06 10:25:21;;;;;;;472.45;85.75;;;4.60;99.90;;;;;;4977747;28;20037;-74
2021/11/06 10:27:56;;;;;;;315.42;77.43;;;4.40;99.90;;;;;;4972820;28;20523;-73
2021/11/06 10:30:36;;;;;;;315.23;77.90;;;4.60;99.90;;;;;;4974006;28;20050;-73
2021/11/06 10:33:10;;;;;;;242.32;70.78;;;4.50;99.90;;;;;;4985199;28;20030;-73
2021/11/06 10:35:41;;;;;;;221.20;68.35;;;4.60;99.90;;;;;;4974427;28;20031;-73
2021/11/06 10:38:14;;;;;;;315.65;76.10;;;4.70;99.90;;;;;;4987627;28;20038;-73
2021/11/06 10:40:46;;;;;;;233.57;68.90;;;4.70;99.90;;;;;;4984345;28;20041;-73
2021/11/06 10:43:14;;;;;;;404.50;82.93;;;4.80;99.90;;;;;;4976669;28;20399;-73
2021/11/06 10:45:51;;;;;;;227.32;68.07;;;4.90;99.90;;;;;;4983651;28;20484;-73
2021/11/06 10:48:20;;;;;;;156.32;60.75;;;4.70;99.90;;;;;;4985552;28;20117;-73
2021/11/06 10:51:04;;;;;;;255.77;71.25;;;4.80;99.90;;;;;;4983793;28;20309;-73
2021/11/06 10:53:46;;;;;;;254.18;76.63;;;5.00;99.90;;;;;;4969600;28;20023;-73
2021/11/06 10:56:16;;;;;;;196.13;66.40;;;5.00;99.90;;;;;;4979935;28;20030;-73
2021/11/06 10:58:43;;;;;;;146.98;62.28;;;5.00;99.90;;;;;;4993102;28;20031;-72
2021/11/06 11:01:12;;;;;;;138.55;57.15;;;5.20;99.90;;;;;;4979648;28;20571;-73
2021/11/06 11:03:43;;;;;;;106.68;50.83;;;5.20;99.90;;;;;;4982358;28;20046;-73
2021/11/06 11:06:17;;;;;;;128.60;53.97;;;5.40;99.90;;;;;;4986847;28;20057;-73
2021/11/06 11:08:49;;;;;;;101.43;48.92;;;5.30;99.90;;;;;;4973752;28;20026;-73
2021/11/06 11:11:19;;;;;;;118.57;54.95;;;5.40;99.90;;;;;;4973259;28;20034;-73
2021/11/06 11:13:55;;;;;;;127.18;54.00;;;5.50;99.90;;;;;;4986478;28;20025;-73
2021/11/06 11:16:21;;;;;;;;;;;5.50;99.90;;;;;;4967469;28;20035;-73
2021/11/06 11:18:52;;;;;;;83.75;48.22;;;5.60;99.90;;;;;;4971900;28;19961;-73
2021/11/06 11:21:30;;;;;;;96.97;50.60;;;5.70;99.90;;;;;;4983240;28;20030;-73
2021/11/06 11:23:57;;;;;;;119.90;54.70;;;5.90;99.90;;;;;;4975069;28;20197;-73
2021/11/06 11:26:29;;;;;;;122.28;54.83;;;5.80;99.90;;;;;;4972955;28;20051;-73
2021/11/06 11:28:55;;;;;;;111.10;51.85;;;5.70;99.90;;;;;;4984890;28;20023;-73
2021/11/06 11:31:22;;;;;;;145.95;55.20;;;5.90;99.90;;;;;;4982917;28;20022;-73
2021/11/06 11:33:48;;;;;;;126.40;52.60;;;5.80;99.90;;;;;;4973208;28;20058;-73
2021/11/06 11:36:18;;;;;;;109.75;49.22;;;5.70;99.90;;;;;;4972007;28;20050;-73
2021/11/06 11:38:44;;;;;;;91.70;45.67;;;5.60;99.90;;;;;;4982871;28;20126;-73
2021/11/06 11:41:34;;;;;;;75.45;42.92;;;5.70;99.90;;;;;;4978107;28;20790;-73
2021/11/06 11:44:38;;;;;;;82.28;44.90;;;5.90;99.90;;;;;;4971615;28;20122;-73
2021/11/06 11:47:16;;;;;;;123.72;53.72;;;5.90;99.90;;;;;;4961625;28;20031;-73
2021/11/06 11:49:44;;;;;;;108.60;50.67;;;5.70;99.90;;;;;;4975045;28;20101;-74
2021/11/06 11:52:35;;;;;;;73.28;41.90;;;5.90;99.90;;;;;;4986293;28;20034;-73
2021/11/06 11:55:06;;;;;;;74.90;40.85;;;6.00;99.90;;;;;;4983194;28;20023;-74
2021/11/06 11:57:33;;;;;;;89.93;43.45;;;6.00;99.90;;;;;;4981951;28;20392;-73
2021/11/06 11:59:59;;;;;;;90.78;42.67;;;5.70;99.90;;;;;;4989549;28;20026;-73
2021/11/06 12:02:30;;;;;;;110.95;48.03;;;5.50;99.90;;;;;;4976916;28;20018;-73
2021/11/06 12:05:15;;;;;;;85.78;44.13;;;5.40;99.90;;;;;;4983354;28;20034;-73
2021/11/06 12:07:41;;;;;;;111.20;51.22;;;5.50;99.90;;;;;;4983074;28;20101;-73
2021/11/06 12:10:28;;;;;;;111.97;49.70;;;5.60;99.90;;;;;;4984523;28;20392;-73
2021/11/06 12:12:54;;;;;;;102.28;48.58;;;5.70;99.90;;;;;;4983136;28;20105;-73
2021/11/06 12:15:20;;;;;;;71.15;41.33;;;5.80;99.90;;;;;;4982614;28;20124;-73
2021/11/06 12:17:46;;;;;;;72.15;41.53;;;6.00;99.90;;;;;;4989528;28;20031;-74
2021/11/06 12:20:27;;;;;;;60.08;35.65;;;6.00;99.90;;;;;;4988297;28;20167;-73
2021/11/06 12:22:53;;;;;;;58.55;34.28;;;6.00;99.90;;;;;;4975767;28;20027;-73
2021/11/06 12:25:22;;;;;;;67.82;36.97;;;6.00;99.90;;;;;;4978297;28;20050;-74
2021/11/06 12:27:53;;;;;;;71.90;38.25;;;5.90;99.90;;;;;;4982941;28;20019;-73